sensor_id;sensor_type;location;lat;lon;timestamp;pressure;altitude;pressure_sealevel;temperature;humidity
57250;BME280;43102;52.014;-0.680;2023-08-31T00:00:00;100108;;;18.24;50.32
57250;BME280;43102;52.014;-0.680;2023-08-31T00:01:00;100108;;;18.24;50.32
57250;BME280;43102;52.014;-0.680;2023-08-31T00:02:00;100108;;;18.24;50.32
57250;BME280;43102;52.014;-0.680;2023-08-31T00:03:00;100108;;;18.24;50.32
57250;BME280;43102;52.014;-0.680;2023-08-31T00:04:00;100108;;;18.24;50.32
57250;BME280;43102;52.014;-0.680;2023-08-31T00:05:00;100119;;;18.19;50.27
57250;BME280;43102;52.014;-0.680;2023-08-31T00:06:01;100119;;;18.19;50.27
57250;BME280;43102;52.014;-0.680;2023-08-31T00:07:00;100119;;;18.19;50.27
57250;BME280;43102;52.014;-0.680;2023-08-31T00:08:00;100119;;;18.19;50.27
57250;BME280;43102;52.014;-0.680;2023-08-31T00:09:00;100119;;;18.19;50.27
57250;BME280;43102;52.014;-0.680;2023-08-31T00:10:00;100123;;;18.09;50.32
57250;BME280;43102;52.014;-0.680;2023-08-31T00:11:00;100123;;;18.09;50.32
57250;BME280;43102;52.014;-0.680;2023-08-31T00:12:01;100123;;;18.09;50.32
57250;BME280;43102;52.014;-0.680;2023-08-31T00:13:00;100123;;;18.09;50.32
57250;BME280;43102;52.014;-0.680;2023-08-31T00:14:00;100123;;;18.09;50.32
57250;BME280;43102;52.014;-0.680;2023-08-31T00:15:00;100129;;;18.03;50.30
57250;BME280;43102;52.014;-0.680;2023-08-31T00:16:00;100129;;;18.03;50.30
57250;BME280;43102;52.014;-0.680;2023-08-31T00:17:00;100129;;;18.03;50.30
57250;BME280;43102;52.014;-0.680;2023-08-31T00:18:00;100129;;;18.03;50.30
57250;BME280;43102;52.014;-0.680;2023-08-31T00:19:00;100129;;;18.03;50.30
57250;BME280;43102;52.014;-0.680;2023-08-31T00:20:00;100125;;;17.87;50.48
57250;BME280;43102;52.014;-0.680;2023-08-31T00:21:00;100125;;;17.87;50.48
57250;BME280;43102;52.014;-0.680;2023-08-31T00:22:00;100125;;;17.87;50.48
57250;BME280;43102;52.014;-0.680;2023-08-31T00:23:00;100125;;;17.87;50.48
57250;BME280;43102;52.014;-0.680;2023-08-31T00:24:00;100125;;;17.87;50.48
57250;BME280;43102;52.014;-0.680;2023-08-31T00:25:00;100116;;;17.83;50.61
57250;BME280;43102;52.014;-0.680;2023-08-31T00:26:00;100116;;;17.83;50.61
57250;BME280;43102;52.014;-0.680;2023-08-31T00:27:00;100116;;;17.83;50.61
57250;BME280;43102;52.014;-0.680;2023-08-31T00:28:00;100116;;;17.83;50.61
57250;BME280;43102;52.014;-0.680;2023-08-31T00:29:00;100116;;;17.83;50.61
57250;BME280;43102;52.014;-0.680;2023-08-31T00:30:00;100107;;;17.82;50.54
57250;BME280;43102;52.014;-0.680;2023-08-31T00:31:00;100107;;;17.82;50.54
57250;BME280;43102;52.014;-0.680;2023-08-31T00:32:00;100107;;;17.82;50.54
57250;BME280;43102;52.014;-0.680;2023-08-31T00:33:00;100107;;;17.82;50.54
57250;BME280;43102;52.014;-0.680;2023-08-31T00:34:00;100107;;;17.82;50.54
57250;BME280;43102;52.014;-0.680;2023-08-31T00:35:00;100097;;;17.75;50.64
57250;BME280;43102;52.014;-0.680;2023-08-31T00:36:00;100097;;;17.75;50.64
57250;BME280;43102;52.014;-0.680;2023-08-31T00:37:00;100097;;;17.75;50.64
57250;BME280;43102;52.014;-0.680;2023-08-31T00:38:00;100097;;;17.75;50.64
57250;BME280;43102;52.014;-0.680;2023-08-31T00:39:03;100097;;;17.75;50.64
57250;BME280;43102;52.014;-0.680;2023-08-31T00:40:00;100096;;;17.63;50.84
57250;BME280;43102;52.014;-0.680;2023-08-31T00:41:00;100096;;;17.63;50.84
57250;BME280;43102;52.014;-0.680;2023-08-31T00:42:00;100096;;;17.63;50.84
57250;BME280;43102;52.014;-0.680;2023-08-31T00:43:00;100096;;;17.63;50.84
57250;BME280;43102;52.014;-0.680;2023-08-31T00:44:00;100096;;;17.63;50.84
57250;BME280;43102;52.014;-0.680;2023-08-31T00:45:00;100093;;;17.56;50.92
57250;BME280;43102;52.014;-0.680;2023-08-31T00:46:00;100093;;;17.56;50.92
57250;BME280;43102;52.014;-0.680;2023-08-31T00:47:00;100093;;;17.56;50.92
57250;BME280;43102;52.014;-0.680;2023-08-31T00:48:00;100093;;;17.56;50.92
57250;BME280;43102;52.014;-0.680;2023-08-31T00:49:00;100093;;;17.56;50.92
57250;BME280;43102;52.014;-0.680;2023-08-31T00:50:00;100102;;;17.50;51.01
57250;BME280;43102;52.014;-0.680;2023-08-31T00:51:00;100102;;;17.50;51.01
57250;BME280;43102;52.014;-0.680;2023-08-31T00:52:00;100102;;;17.50;51.01
57250;BME280;43102;52.014;-0.680;2023-08-31T00:53:00;100102;;;17.50;51.01
57250;BME280;43102;52.014;-0.680;2023-08-31T00:54:00;100102;;;17.50;51.01
57250;BME280;43102;52.014;-0.680;2023-08-31T00:55:00;100107;;;17.44;51.13
57250;BME280;43102;52.014;-0.680;2023-08-31T00:56:00;100107;;;17.44;51.13
57250;BME280;43102;52.014;-0.680;2023-08-31T00:57:00;100107;;;17.44;51.13
57250;BME280;43102;52.014;-0.680;2023-08-31T00:58:00;100107;;;17.44;51.13
57250;BME280;43102;52.014;-0.680;2023-08-31T00:59:00;100107;;;17.44;51.13
57250;BME280;43102;52.014;-0.680;2023-08-31T01:00:00;100106;;;17.40;51.24
57250;BME280;43102;52.014;-0.680;2023-08-31T01:02:03;100106;;;17.40;51.24
57250;BME280;43102;52.014;-0.680;2023-08-31T01:03:01;100106;;;17.40;51.24
57250;BME280;43102;52.014;-0.680;2023-08-31T01:04:06;100106;;;17.40;51.24
57250;BME280;43102;52.014;-0.680;2023-08-31T01:05:03;100102;;;17.35;51.30
57250;BME280;43102;52.014;-0.680;2023-08-31T01:09:10;100102;;;17.35;51.30
57250;BME280;43102;52.014;-0.680;2023-08-31T01:10:02;100096;;;17.38;51.34
57250;BME280;43102;52.014;-0.680;2023-08-31T01:11:08;100096;;;17.38;51.34
57250;BME280;43102;52.014;-0.680;2023-08-31T01:13:03;100096;;;17.38;51.34
57250;BME280;43102;52.014;-0.680;2023-08-31T01:14:02;100096;;;17.38;51.34
57250;BME280;43102;52.014;-0.680;2023-08-31T01:15:02;100088;;;17.36;51.39
57250;BME280;43102;52.014;-0.680;2023-08-31T01:16:00;100088;;;17.36;51.39
57250;BME280;43102;52.014;-0.680;2023-08-31T01:17:00;100088;;;17.36;51.39
57250;BME280;43102;52.014;-0.680;2023-08-31T01:18:00;100088;;;17.36;51.39
57250;BME280;43102;52.014;-0.680;2023-08-31T01:19:01;100088;;;17.36;51.39
57250;BME280;43102;52.014;-0.680;2023-08-31T01:20:00;100083;;;17.36;51.37
57250;BME280;43102;52.014;-0.680;2023-08-31T01:22:00;100083;;;17.36;51.37
57250;BME280;43102;52.014;-0.680;2023-08-31T01:23:01;100083;;;17.36;51.37
57250;BME280;43102;52.014;-0.680;2023-08-31T01:24:00;100083;;;17.36;51.37
57250;BME280;43102;52.014;-0.680;2023-08-31T01:25:00;100084;;;17.29;51.54
57250;BME280;43102;52.014;-0.680;2023-08-31T01:26:00;100084;;;17.29;51.54
57250;BME280;43102;52.014;-0.680;2023-08-31T01:27:00;100084;;;17.29;51.54
57250;BME280;43102;52.014;-0.680;2023-08-31T01:28:00;100084;;;17.29;51.54
57250;BME280;43102;52.014;-0.680;2023-08-31T01:29:00;100084;;;17.29;51.54
57250;BME280;43102;52.014;-0.680;2023-08-31T01:30:00;100092;;;17.27;51.57
57250;BME280;43102;52.014;-0.680;2023-08-31T01:31:03;100092;;;17.27;51.57
57250;BME280;43102;52.014;-0.680;2023-08-31T01:32:00;100092;;;17.27;51.57
57250;BME280;43102;52.014;-0.680;2023-08-31T01:33:00;100092;;;17.27;51.57
57250;BME280;43102;52.014;-0.680;2023-08-31T01:34:00;100092;;;17.27;51.57
57250;BME280;43102;52.014;-0.680;2023-08-31T01:35:00;100095;;;17.23;51.60
57250;BME280;43102;52.014;-0.680;2023-08-31T01:36:00;100095;;;17.23;51.60
57250;BME280;43102;52.014;-0.680;2023-08-31T01:37:00;100095;;;17.23;51.60
57250;BME280;43102;52.014;-0.680;2023-08-31T01:38:01;100095;;;17.23;51.60
57250;BME280;43102;52.014;-0.680;2023-08-31T01:39:05;100095;;;17.23;51.60
57250;BME280;43102;52.014;-0.680;2023-08-31T01:40:02;100086;;;17.20;51.59
57250;BME280;43102;52.014;-0.680;2023-08-31T01:41:01;100086;;;17.20;51.59
57250;BME280;43102;52.014;-0.680;2023-08-31T01:42:00;100086;;;17.20;51.59
57250;BME280;43102;52.014;-0.680;2023-08-31T01:43:01;100086;;;17.20;51.59
57250;BME280;43102;52.014;-0.680;2023-08-31T01:44:00;100086;;;17.20;51.59
57250;BME280;43102;52.014;-0.680;2023-08-31T01:45:00;100095;;;17.14;51.60
57250;BME280;43102;52.014;-0.680;2023-08-31T01:46:00;100095;;;17.14;51.60
57250;BME280;43102;52.014;-0.680;2023-08-31T01:47:02;100095;;;17.14;51.60
57250;BME280;43102;52.014;-0.680;2023-08-31T01:48:00;100095;;;17.14;51.60
57250;BME280;43102;52.014;-0.680;2023-08-31T01:49:00;100095;;;17.14;51.60
57250;BME280;43102;52.014;-0.680;2023-08-31T01:50:00;100097;;;17.09;51.66
57250;BME280;43102;52.014;-0.680;2023-08-31T01:51:00;100097;;;17.09;51.66
57250;BME280;43102;52.014;-0.680;2023-08-31T01:52:00;100097;;;17.09;51.66
57250;BME280;43102;52.014;-0.680;2023-08-31T01:53:00;100097;;;17.09;51.66
57250;BME280;43102;52.014;-0.680;2023-08-31T01:54:00;100097;;;17.09;51.66
57250;BME280;43102;52.014;-0.680;2023-08-31T01:55:00;100097;;;17.01;51.92
57250;BME280;43102;52.014;-0.680;2023-08-31T01:56:00;100097;;;17.01;51.92
57250;BME280;43102;52.014;-0.680;2023-08-31T01:57:00;100097;;;17.01;51.92
57250;BME280;43102;52.014;-0.680;2023-08-31T01:58:00;100097;;;17.01;51.92
57250;BME280;43102;52.014;-0.680;2023-08-31T01:59:00;100097;;;17.01;51.92
57250;BME280;43102;52.014;-0.680;2023-08-31T02:00:00;100090;;;17.03;51.91
57250;BME280;43102;52.014;-0.680;2023-08-31T02:01:00;100090;;;17.03;51.91
57250;BME280;43102;52.014;-0.680;2023-08-31T02:02:00;100090;;;17.03;51.91
57250;BME280;43102;52.014;-0.680;2023-08-31T02:03:00;100090;;;17.03;51.91
57250;BME280;43102;52.014;-0.680;2023-08-31T02:04:00;100090;;;17.03;51.91
57250;BME280;43102;52.014;-0.680;2023-08-31T02:05:00;100096;;;17.00;52.07
57250;BME280;43102;52.014;-0.680;2023-08-31T02:06:00;100096;;;17.00;52.07
57250;BME280;43102;52.014;-0.680;2023-08-31T02:07:00;100096;;;17.00;52.07
57250;BME280;43102;52.014;-0.680;2023-08-31T02:08:00;100096;;;17.00;52.07
57250;BME280;43102;52.014;-0.680;2023-08-31T02:09:00;100096;;;17.00;52.07
57250;BME280;43102;52.014;-0.680;2023-08-31T02:10:00;100095;;;17.02;52.15
57250;BME280;43102;52.014;-0.680;2023-08-31T02:11:00;100095;;;17.02;52.15
57250;BME280;43102;52.014;-0.680;2023-08-31T02:12:00;100095;;;17.02;52.15
57250;BME280;43102;52.014;-0.680;2023-08-31T02:13:00;100095;;;17.02;52.15
57250;BME280;43102;52.014;-0.680;2023-08-31T02:14:00;100095;;;17.02;52.15
57250;BME280;43102;52.014;-0.680;2023-08-31T02:15:00;100095;;;17.03;52.20
57250;BME280;43102;52.014;-0.680;2023-08-31T02:16:00;100095;;;17.03;52.20
57250;BME280;43102;52.014;-0.680;2023-08-31T02:17:00;100095;;;17.03;52.20
57250;BME280;43102;52.014;-0.680;2023-08-31T02:18:00;100095;;;17.03;52.20
57250;BME280;43102;52.014;-0.680;2023-08-31T02:19:00;100095;;;17.03;52.20
57250;BME280;43102;52.014;-0.680;2023-08-31T02:20:00;100091;;;17.04;52.20
57250;BME280;43102;52.014;-0.680;2023-08-31T02:21:00;100091;;;17.04;52.20
57250;BME280;43102;52.014;-0.680;2023-08-31T02:22:00;100091;;;17.04;52.20
57250;BME280;43102;52.014;-0.680;2023-08-31T02:23:00;100091;;;17.04;52.20
57250;BME280;43102;52.014;-0.680;2023-08-31T02:24:00;100091;;;17.04;52.20
57250;BME280;43102;52.014;-0.680;2023-08-31T02:25:00;100086;;;17.06;52.73
57250;BME280;43102;52.014;-0.680;2023-08-31T02:26:00;100086;;;17.06;52.73
57250;BME280;43102;52.014;-0.680;2023-08-31T02:27:00;100086;;;17.06;52.73
57250;BME280;43102;52.014;-0.680;2023-08-31T02:28:00;100086;;;17.06;52.73
57250;BME280;43102;52.014;-0.680;2023-08-31T02:29:00;100086;;;17.06;52.73
57250;BME280;43102;52.014;-0.680;2023-08-31T02:30:00;100092;;;17.08;52.60
57250;BME280;43102;52.014;-0.680;2023-08-31T02:31:01;100092;;;17.08;52.60
57250;BME280;43102;52.014;-0.680;2023-08-31T02:32:00;100092;;;17.08;52.60
57250;BME280;43102;52.014;-0.680;2023-08-31T02:33:00;100092;;;17.08;52.60
57250;BME280;43102;52.014;-0.680;2023-08-31T02:34:00;100092;;;17.08;52.60
57250;BME280;43102;52.014;-0.680;2023-08-31T02:35:00;100092;;;17.11;52.65
57250;BME280;43102;52.014;-0.680;2023-08-31T02:36:00;100092;;;17.11;52.65
57250;BME280;43102;52.014;-0.680;2023-08-31T02:37:00;100092;;;17.11;52.65
57250;BME280;43102;52.014;-0.680;2023-08-31T02:38:00;100092;;;17.11;52.65
57250;BME280;43102;52.014;-0.680;2023-08-31T02:39:00;100092;;;17.11;52.65
57250;BME280;43102;52.014;-0.680;2023-08-31T02:40:00;100087;;;17.09;52.66
57250;BME280;43102;52.014;-0.680;2023-08-31T02:41:00;100087;;;17.09;52.66
57250;BME280;43102;52.014;-0.680;2023-08-31T02:42:00;100087;;;17.09;52.66
57250;BME280;43102;52.014;-0.680;2023-08-31T02:43:00;100087;;;17.09;52.66
57250;BME280;43102;52.014;-0.680;2023-08-31T02:44:00;100087;;;17.09;52.66
57250;BME280;43102;52.014;-0.680;2023-08-31T02:45:00;100093;;;17.07;52.63
57250;BME280;43102;52.014;-0.680;2023-08-31T02:46:00;100093;;;17.07;52.63
57250;BME280;43102;52.014;-0.680;2023-08-31T02:47:00;100093;;;17.07;52.63
57250;BME280;43102;52.014;-0.680;2023-08-31T02:48:00;100093;;;17.07;52.63
57250;BME280;43102;52.014;-0.680;2023-08-31T02:49:00;100093;;;17.07;52.63
57250;BME280;43102;52.014;-0.680;2023-08-31T02:50:00;100089;;;17.10;52.76
57250;BME280;43102;52.014;-0.680;2023-08-31T02:51:00;100089;;;17.10;52.76
57250;BME280;43102;52.014;-0.680;2023-08-31T02:52:00;100089;;;17.10;52.76
57250;BME280;43102;52.014;-0.680;2023-08-31T02:53:00;100089;;;17.10;52.76
57250;BME280;43102;52.014;-0.680;2023-08-31T02:54:00;100089;;;17.10;52.76
57250;BME280;43102;52.014;-0.680;2023-08-31T02:55:00;100079;;;17.10;53.18
57250;BME280;43102;52.014;-0.680;2023-08-31T02:56:00;100079;;;17.10;53.18
57250;BME280;43102;52.014;-0.680;2023-08-31T02:57:00;100079;;;17.10;53.18
57250;BME280;43102;52.014;-0.680;2023-08-31T02:58:00;100079;;;17.10;53.18
57250;BME280;43102;52.014;-0.680;2023-08-31T02:59:00;100079;;;17.10;53.18
57250;BME280;43102;52.014;-0.680;2023-08-31T03:00:00;100085;;;17.15;53.12
57250;BME280;43102;52.014;-0.680;2023-08-31T03:01:08;100085;;;17.15;53.12
57250;BME280;43102;52.014;-0.680;2023-08-31T03:02:00;100085;;;17.15;53.12
57250;BME280;43102;52.014;-0.680;2023-08-31T03:03:00;100085;;;17.15;53.12
57250;BME280;43102;52.014;-0.680;2023-08-31T03:04:00;100085;;;17.15;53.12
57250;BME280;43102;52.014;-0.680;2023-08-31T03:05:00;100078;;;17.16;53.11
57250;BME280;43102;52.014;-0.680;2023-08-31T03:06:00;100078;;;17.16;53.11
57250;BME280;43102;52.014;-0.680;2023-08-31T03:07:00;100078;;;17.16;53.11
57250;BME280;43102;52.014;-0.680;2023-08-31T03:08:00;100078;;;17.16;53.11
57250;BME280;43102;52.014;-0.680;2023-08-31T03:09:00;100078;;;17.16;53.11
57250;BME280;43102;52.014;-0.680;2023-08-31T03:10:00;100083;;;17.14;53.22
57250;BME280;43102;52.014;-0.680;2023-08-31T03:11:00;100083;;;17.14;53.22
57250;BME280;43102;52.014;-0.680;2023-08-31T03:12:00;100083;;;17.14;53.22
57250;BME280;43102;52.014;-0.680;2023-08-31T03:13:00;100083;;;17.14;53.22
57250;BME280;43102;52.014;-0.680;2023-08-31T03:14:00;100083;;;17.14;53.22
57250;BME280;43102;52.014;-0.680;2023-08-31T03:15:00;100082;;;17.15;53.01
57250;BME280;43102;52.014;-0.680;2023-08-31T03:16:00;100082;;;17.15;53.01
57250;BME280;43102;52.014;-0.680;2023-08-31T03:17:00;100082;;;17.15;53.01
57250;BME280;43102;52.014;-0.680;2023-08-31T03:18:00;100082;;;17.15;53.01
57250;BME280;43102;52.014;-0.680;2023-08-31T03:19:00;100082;;;17.15;53.01
57250;BME280;43102;52.014;-0.680;2023-08-31T03:20:00;100079;;;17.11;53.02
57250;BME280;43102;52.014;-0.680;2023-08-31T03:21:00;100079;;;17.11;53.02
57250;BME280;43102;52.014;-0.680;2023-08-31T03:22:00;100079;;;17.11;53.02
57250;BME280;43102;52.014;-0.680;2023-08-31T03:23:00;100079;;;17.11;53.02
57250;BME280;43102;52.014;-0.680;2023-08-31T03:24:00;100079;;;17.11;53.02
57250;BME280;43102;52.014;-0.680;2023-08-31T03:25:00;100077;;;17.11;53.37
57250;BME280;43102;52.014;-0.680;2023-08-31T03:26:05;100077;;;17.11;53.37
57250;BME280;43102;52.014;-0.680;2023-08-31T03:27:00;100077;;;17.11;53.37
57250;BME280;43102;52.014;-0.680;2023-08-31T03:28:00;100077;;;17.11;53.37
57250;BME280;43102;52.014;-0.680;2023-08-31T03:29:00;100077;;;17.11;53.37
57250;BME280;43102;52.014;-0.680;2023-08-31T03:30:00;100077;;;17.09;53.42
57250;BME280;43102;52.014;-0.680;2023-08-31T03:31:00;100077;;;17.09;53.42
57250;BME280;43102;52.014;-0.680;2023-08-31T03:32:00;100077;;;17.09;53.42
57250;BME280;43102;52.014;-0.680;2023-08-31T03:33:00;100077;;;17.09;53.42
57250;BME280;43102;52.014;-0.680;2023-08-31T03:34:00;100077;;;17.09;53.42
57250;BME280;43102;52.014;-0.680;2023-08-31T03:35:01;100070;;;17.09;53.49
57250;BME280;43102;52.014;-0.680;2023-08-31T03:36:00;100070;;;17.09;53.49
57250;BME280;43102;52.014;-0.680;2023-08-31T03:37:00;100070;;;17.09;53.49
57250;BME280;43102;52.014;-0.680;2023-08-31T03:38:00;100070;;;17.09;53.49
57250;BME280;43102;52.014;-0.680;2023-08-31T03:39:00;100070;;;17.09;53.49
57250;BME280;43102;52.014;-0.680;2023-08-31T03:40:00;100071;;;17.08;53.52
57250;BME280;43102;52.014;-0.680;2023-08-31T03:41:00;100071;;;17.08;53.52
57250;BME280;43102;52.014;-0.680;2023-08-31T03:42:00;100071;;;17.08;53.52
57250;BME280;43102;52.014;-0.680;2023-08-31T03:43:00;100071;;;17.08;53.52
57250;BME280;43102;52.014;-0.680;2023-08-31T03:44:00;100071;;;17.08;53.52
57250;BME280;43102;52.014;-0.680;2023-08-31T03:45:00;100071;;;17.10;53.59
57250;BME280;43102;52.014;-0.680;2023-08-31T03:46:00;100071;;;17.10;53.59
57250;BME280;43102;52.014;-0.680;2023-08-31T03:47:00;100071;;;17.10;53.59
57250;BME280;43102;52.014;-0.680;2023-08-31T03:48:00;100071;;;17.10;53.59
57250;BME280;43102;52.014;-0.680;2023-08-31T03:49:00;100071;;;17.10;53.59
57250;BME280;43102;52.014;-0.680;2023-08-31T03:50:00;100065;;;17.13;53.49
57250;BME280;43102;52.014;-0.680;2023-08-31T03:51:00;100065;;;17.13;53.49
57250;BME280;43102;52.014;-0.680;2023-08-31T03:52:00;100065;;;17.13;53.49
57250;BME280;43102;52.014;-0.680;2023-08-31T03:53:00;100065;;;17.13;53.49
57250;BME280;43102;52.014;-0.680;2023-08-31T03:54:00;100065;;;17.13;53.49
57250;BME280;43102;52.014;-0.680;2023-08-31T03:55:00;100058;;;17.05;53.79
57250;BME280;43102;52.014;-0.680;2023-08-31T03:56:00;100058;;;17.05;53.79
57250;BME280;43102;52.014;-0.680;2023-08-31T03:57:00;100058;;;17.05;53.79
57250;BME280;43102;52.014;-0.680;2023-08-31T03:58:00;100058;;;17.05;53.79
57250;BME280;43102;52.014;-0.680;2023-08-31T03:59:01;100058;;;17.05;53.79
57250;BME280;43102;52.014;-0.680;2023-08-31T04:00:00;100062;;;17.05;53.77
57250;BME280;43102;52.014;-0.680;2023-08-31T04:01:00;100062;;;17.05;53.77
57250;BME280;43102;52.014;-0.680;2023-08-31T04:02:00;100062;;;17.05;53.77
57250;BME280;43102;52.014;-0.680;2023-08-31T04:03:00;100062;;;17.05;53.77
57250;BME280;43102;52.014;-0.680;2023-08-31T04:04:00;100062;;;17.05;53.77
57250;BME280;43102;52.014;-0.680;2023-08-31T04:05:00;100062;;;17.06;53.75
57250;BME280;43102;52.014;-0.680;2023-08-31T04:06:00;100062;;;17.06;53.75
57250;BME280;43102;52.014;-0.680;2023-08-31T04:07:00;100062;;;17.06;53.75
57250;BME280;43102;52.014;-0.680;2023-08-31T04:08:00;100062;;;17.06;53.75
57250;BME280;43102;52.014;-0.680;2023-08-31T04:09:00;100062;;;17.06;53.75
57250;BME280;43102;52.014;-0.680;2023-08-31T04:10:00;100063;;;17.02;53.74
57250;BME280;43102;52.014;-0.680;2023-08-31T04:11:00;100063;;;17.02;53.74
57250;BME280;43102;52.014;-0.680;2023-08-31T04:12:00;100063;;;17.02;53.74
57250;BME280;43102;52.014;-0.680;2023-08-31T04:13:00;100063;;;17.02;53.74
57250;BME280;43102;52.014;-0.680;2023-08-31T04:14:00;100063;;;17.02;53.74
57250;BME280;43102;52.014;-0.680;2023-08-31T04:15:00;100076;;;17.01;53.68
57250;BME280;43102;52.014;-0.680;2023-08-31T04:16:00;100076;;;17.01;53.68
57250;BME280;43102;52.014;-0.680;2023-08-31T04:17:00;100076;;;17.01;53.68
57250;BME280;43102;52.014;-0.680;2023-08-31T04:18:00;100076;;;17.01;53.68
57250;BME280;43102;52.014;-0.680;2023-08-31T04:19:00;100076;;;17.01;53.68
57250;BME280;43102;52.014;-0.680;2023-08-31T04:20:00;100075;;;16.98;53.68
57250;BME280;43102;52.014;-0.680;2023-08-31T04:21:00;100075;;;16.98;53.68
57250;BME280;43102;52.014;-0.680;2023-08-31T04:22:00;100075;;;16.98;53.68
57250;BME280;43102;52.014;-0.680;2023-08-31T04:23:00;100075;;;16.98;53.68
57250;BME280;43102;52.014;-0.680;2023-08-31T04:24:00;100075;;;16.98;53.68
57250;BME280;43102;52.014;-0.680;2023-08-31T04:25:00;100085;;;16.98;53.87
57250;BME280;43102;52.014;-0.680;2023-08-31T04:26:00;100085;;;16.98;53.87
57250;BME280;43102;52.014;-0.680;2023-08-31T04:27:00;100085;;;16.98;53.87
57250;BME280;43102;52.014;-0.680;2023-08-31T04:28:00;100085;;;16.98;53.87
57250;BME280;43102;52.014;-0.680;2023-08-31T04:29:00;100085;;;16.98;53.87
57250;BME280;43102;52.014;-0.680;2023-08-31T04:30:00;100092;;;16.98;53.91
57250;BME280;43102;52.014;-0.680;2023-08-31T04:31:00;100092;;;16.98;53.91
57250;BME280;43102;52.014;-0.680;2023-08-31T04:32:00;100092;;;16.98;53.91
57250;BME280;43102;52.014;-0.680;2023-08-31T04:33:00;100092;;;16.98;53.91
57250;BME280;43102;52.014;-0.680;2023-08-31T04:34:00;100092;;;16.98;53.91
57250;BME280;43102;52.014;-0.680;2023-08-31T04:35:00;100097;;;17.00;53.81
57250;BME280;43102;52.014;-0.680;2023-08-31T04:36:00;100097;;;17.00;53.81
57250;BME280;43102;52.014;-0.680;2023-08-31T04:37:00;100097;;;17.00;53.81
57250;BME280;43102;52.014;-0.680;2023-08-31T04:38:00;100097;;;17.00;53.81
57250;BME280;43102;52.014;-0.680;2023-08-31T04:39:00;100097;;;17.00;53.81
57250;BME280;43102;52.014;-0.680;2023-08-31T04:40:00;100102;;;16.86;54.18
57250;BME280;43102;52.014;-0.680;2023-08-31T04:41:00;100102;;;16.86;54.18
57250;BME280;43102;52.014;-0.680;2023-08-31T04:42:00;100102;;;16.86;54.18
57250;BME280;43102;52.014;-0.680;2023-08-31T04:43:00;100102;;;16.86;54.18
57250;BME280;43102;52.014;-0.680;2023-08-31T04:44:00;100102;;;16.86;54.18
57250;BME280;43102;52.014;-0.680;2023-08-31T04:45:00;100098;;;16.85;54.35
57250;BME280;43102;52.014;-0.680;2023-08-31T04:46:00;100098;;;16.85;54.35
57250;BME280;43102;52.014;-0.680;2023-08-31T04:47:00;100098;;;16.85;54.35
57250;BME280;43102;52.014;-0.680;2023-08-31T04:48:00;100098;;;16.85;54.35
57250;BME280;43102;52.014;-0.680;2023-08-31T04:49:00;100098;;;16.85;54.35
57250;BME280;43102;52.014;-0.680;2023-08-31T04:50:00;100098;;;16.77;54.59
57250;BME280;43102;52.014;-0.680;2023-08-31T04:51:00;100098;;;16.77;54.59
57250;BME280;43102;52.014;-0.680;2023-08-31T04:52:00;100098;;;16.77;54.59
57250;BME280;43102;52.014;-0.680;2023-08-31T04:53:00;100098;;;16.77;54.59
57250;BME280;43102;52.014;-0.680;2023-08-31T04:54:00;100098;;;16.77;54.59
57250;BME280;43102;52.014;-0.680;2023-08-31T04:55:00;100099;;;16.85;54.50
57250;BME280;43102;52.014;-0.680;2023-08-31T04:56:00;100099;;;16.85;54.50
57250;BME280;43102;52.014;-0.680;2023-08-31T04:57:00;100099;;;16.85;54.50
57250;BME280;43102;52.014;-0.680;2023-08-31T04:58:00;100099;;;16.85;54.50
57250;BME280;43102;52.014;-0.680;2023-08-31T04:59:00;100099;;;16.85;54.50
57250;BME280;43102;52.014;-0.680;2023-08-31T05:00:00;100104;;;16.88;54.32
57250;BME280;43102;52.014;-0.680;2023-08-31T05:01:00;100104;;;16.88;54.32
57250;BME280;43102;52.014;-0.680;2023-08-31T05:02:00;100104;;;16.88;54.32
57250;BME280;43102;52.014;-0.680;2023-08-31T05:03:00;100104;;;16.88;54.32
57250;BME280;43102;52.014;-0.680;2023-08-31T05:04:00;100104;;;16.88;54.32
57250;BME280;43102;52.014;-0.680;2023-08-31T05:05:00;100095;;;16.86;54.35
57250;BME280;43102;52.014;-0.680;2023-08-31T05:06:00;100095;;;16.86;54.35
57250;BME280;43102;52.014;-0.680;2023-08-31T05:07:00;100095;;;16.86;54.35
57250;BME280;43102;52.014;-0.680;2023-08-31T05:08:00;100095;;;16.86;54.35
57250;BME280;43102;52.014;-0.680;2023-08-31T05:09:00;100095;;;16.86;54.35
57250;BME280;43102;52.014;-0.680;2023-08-31T05:10:00;100100;;;16.86;54.38
57250;BME280;43102;52.014;-0.680;2023-08-31T05:11:00;100100;;;16.86;54.38
57250;BME280;43102;52.014;-0.680;2023-08-31T05:12:00;100100;;;16.86;54.38
57250;BME280;43102;52.014;-0.680;2023-08-31T05:13:00;100100;;;16.86;54.38
57250;BME280;43102;52.014;-0.680;2023-08-31T05:14:00;100100;;;16.86;54.38
57250;BME280;43102;52.014;-0.680;2023-08-31T05:15:00;100097;;;16.93;54.35
57250;BME280;43102;52.014;-0.680;2023-08-31T05:16:00;100097;;;16.93;54.35
57250;BME280;43102;52.014;-0.680;2023-08-31T05:17:00;100097;;;16.93;54.35
57250;BME280;43102;52.014;-0.680;2023-08-31T05:18:00;100097;;;16.93;54.35
57250;BME280;43102;52.014;-0.680;2023-08-31T05:19:00;100097;;;16.93;54.35
57250;BME280;43102;52.014;-0.680;2023-08-31T05:20:00;100096;;;16.98;54.35
57250;BME280;43102;52.014;-0.680;2023-08-31T05:21:00;100096;;;16.98;54.35
57250;BME280;43102;52.014;-0.680;2023-08-31T05:22:00;100096;;;16.98;54.35
57250;BME280;43102;52.014;-0.680;2023-08-31T05:23:00;100096;;;16.98;54.35
57250;BME280;43102;52.014;-0.680;2023-08-31T05:24:00;100096;;;16.98;54.35
57250;BME280;43102;52.014;-0.680;2023-08-31T05:25:00;100093;;;17.00;54.56
57250;BME280;43102;52.014;-0.680;2023-08-31T05:26:00;100093;;;17.00;54.56
57250;BME280;43102;52.014;-0.680;2023-08-31T05:27:00;100093;;;17.00;54.56